Mission Hill, South Dakota
Current Conditions -  °F | °C
As of 9:55 PM on Wednesday 22 Oct 2014 (Local Time) from KYKN Reporting Station
Overcast Overcast  
Wind Chill: 54°   Ceiling: 500
Heat Index: 54°   Visibility: 0.75mi
Dew Point: 52°   Wind: 3mph
Humidity: 94%   Direction: 200°SSW
Pressure: 30.04"   Gusts: NA
Location:  42.92°N, 97.28°W
Report Text: KYKN 230255Z AUTO 20003KT 3/4SM VV005 12/11 A3004 RMK AO1 52014
Loading
Personal Weather Stations






























Interactive Weather Map
Tropical Storm Tracking
New forecast layout! Learn more

10-Day Weather Forecast

Advertisements
Track Severe Weather on mobile